Time;durP1;ratioP1;P1;durP2;ratioP2;P2;SDS_P1;SDS_P2;PMS_P1;PMS_P2;Temp;Humidity;BMP_temperature;BMP_pressure;BME280_temperature;BME280_humidity;BME280_pressure;Samples;Min_cycle;Max_cycle;Signal;HPM_P1;HPM_P2
2022/11/02 00:00:32;;;;;;;7.65;1.77;;;18.80;1.00;;;;;;4841965;29;20049;-53
2022/11/02 00:02:58;;;;;;;6.30;1.88;;;18.80;1.00;;;;;;4842371;29;20050;-52
2022/11/02 00:05:26;;;;;;;6.22;1.63;;;18.80;1.00;;;;;;4842234;29;20106;-49
2022/11/02 00:07:54;;;;;;;9.77;2.53;;;18.80;1.00;;;;;;4842157;29;20480;-52
2022/11/02 00:10:22;;;;;;;7.43;1.40;;;18.80;1.00;;;;;;4841997;29;20034;-48
2022/11/02 00:12:50;;;;;;;11.75;2.90;;;18.80;1.00;;;;;;4842177;29;20046;-49
2022/11/02 00:15:18;;;;;;;5.95;1.30;;;18.80;1.00;;;;;;4842291;29;20120;-51
2022/11/02 00:17:48;;;;;;;13.35;1.98;;;18.80;1.00;;;;;;4842017;29;20107;-52
2022/11/02 00:20:17;;;;;;;12.25;2.35;;;18.80;1.00;;;;;;4841837;29;20404;-50
2022/11/02 00:22:47;;;;;;;7.60;2.03;;;18.80;1.00;;;;;;4842350;29;20050;-52
2022/11/02 00:25:16;;;;;;;9.80;1.90;;;18.80;1.00;;;;;;4842354;29;20046;-50
2022/11/02 00:27:43;;;;;;;12.55;2.78;;;18.80;1.00;;;;;;4842284;29;20452;-51
2022/11/02 00:30:10;;;;;;;7.68;1.33;;;18.80;1.00;;;;;;4842044;29;20416;-49
2022/11/02 00:32:37;;;;;;;5.53;1.65;;;18.80;1.00;;;;;;4841963;29;20074;-52
2022/11/02 00:35:05;;;;;;;9.93;2.00;;;18.80;1.00;;;;;;4844135;29;20073;-51
2022/11/02 00:37:32;;;;;;;8.77;1.70;;;18.80;1.00;;;;;;4845455;29;20102;-51
2022/11/02 00:40:05;;;;;;;7.25;1.60;;;18.70;1.00;;;;;;4865613;29;20037;-51
2022/11/02 00:42:32;;;;;;;8.82;1.73;;;18.70;1.00;;;;;;4881179;29;20055;-54
2022/11/02 00:44:58;;;;;;;13.27;2.50;;;18.70;1.00;;;;;;4882428;29;20041;-51
2022/11/02 00:47:25;;;;;;;7.03;2.45;;;18.70;1.00;;;;;;4882374;29;20495;-57
2022/11/02 00:49:53;;;;;;;7.43;1.55;;;18.70;1.00;;;;;;4882198;29;20511;-51
2022/11/02 00:52:20;;;;;;;10.95;1.73;;;18.70;1.00;;;;;;4880932;29;20559;-52
2022/11/02 00:54:49;;;;;;;6.30;1.50;;;18.70;1.00;;;;;;4881144;29;20101;-52
2022/11/02 00:57:16;;;;;;;13.07;1.90;;;18.70;1.00;;;;;;4880962;29;20060;-53
2022/11/02 00:59:44;;;;;;;6.10;1.20;;;18.70;1.00;;;;;;4880545;29;20049;-50
2022/11/02 01:02:11;;;;;;;6.13;1.33;;;18.70;1.00;;;;;;4896713;29;20555;-52
2022/11/02 01:04:38;;;;;;;8.35;1.60;;;18.70;1.00;;;;;;4882038;29;20052;-49
2022/11/02 01:07:05;;;;;;;5.82;1.60;;;18.60;1.00;;;;;;4882010;29;20041;-54
2022/11/02 01:09:33;;;;;;;4.82;1.25;;;18.60;1.00;;;;;;4895858;29;20047;-53
2022/11/02 01:12:00;;;;;;;5.70;1.30;;;18.60;1.00;;;;;;4881889;29;20101;-52
2022/11/02 01:14:27;;;;;;;7.38;1.10;;;18.60;1.00;;;;;;4881695;29;20048;-55
2022/11/02 01:16:56;;;;;;;7.80;1.83;;;18.60;1.00;;;;;;4881937;29;20056;-51
2022/11/02 01:19:24;;;;;;;7.38;1.33;;;18.60;1.00;;;;;;4881447;29;20507;-51
2022/11/02 01:21:51;;;;;;;8.65;2.08;;;18.60;1.00;;;;;;4896173;29;20041;-52
2022/11/02 01:24:18;;;;;;;5.25;1.35;;;18.60;1.00;;;;;;4881643;29;20063;-52
2022/11/02 01:26:51;;;;;;;6.20;1.83;;;18.60;1.00;;;;;;4880557;29;20045;-49
2022/11/02 01:29:18;;;;;;;7.78;1.98;;;18.60;1.00;;;;;;4876802;29;20045;-51
2022/11/02 01:31:45;;;;;;;6.88;1.65;;;18.60;1.00;;;;;;4877082;29;20423;-54
2022/11/02 01:34:12;;;;;;;4.53;1.15;;;18.60;1.00;;;;;;4863104;29;20094;-50
2022/11/02 01:36:38;;;;;;;13.48;3.05;;;18.60;1.00;;;;;;4877228;29;20057;-49
2022/11/02 01:39:06;;;;;;;8.98;1.70;;;18.60;1.00;;;;;;4865363;29;20047;-53
2022/11/02 01:41:33;;;;;;;10.95;1.63;;;18.60;1.00;;;;;;4879959;29;20129;-54
2022/11/02 01:44:03;;;;;;;5.47;1.92;;;18.50;1.00;;;;;;4881420;29;20045;-50
2022/11/02 01:46:41;;;;;;;8.60;1.60;;;18.50;1.00;;;;;;4880957;29;20133;-49
2022/11/02 01:49:15;;;;;;;7.65;1.75;;;18.50;1.00;;;;;;4881135;29;20053;-51
2022/11/02 01:51:48;;;;;;;5.43;1.90;;;18.50;1.00;;;;;;4881164;29;20047;-52
2022/11/02 01:54:21;;;;;;;4.68;1.13;;;18.50;1.00;;;;;;4881488;29;20101;-52
2022/11/02 01:56:55;;;;;;;5.20;1.35;;;18.50;1.00;;;;;;4879933;29;20431;-51
2022/11/02 01:59:31;;;;;;;9.30;1.40;;;18.50;1.00;;;;;;4879811;29;20049;-49
2022/11/02 02:01:59;;;;;;;7.45;1.80;;;18.50;1.00;;;;;;4879815;29;20057;-50
2022/11/02 02:04:28;;;;;;;7.10;1.75;;;18.50;1.00;;;;;;4881365;29;20646;-51
2022/11/02 02:06:57;;;;;;;9.50;1.58;;;18.50;1.00;;;;;;4879690;29;20137;-50
2022/11/02 02:09:25;;;;;;;8.10;1.95;;;18.50;1.00;;;;;;4880692;29;20049;-51
2022/11/02 02:11:52;;;;;;;6.93;1.40;;;18.50;1.00;;;;;;4880761;29;20045;-52
2022/11/02 02:14:20;;;;;;;7.28;1.45;;;18.50;1.00;;;;;;4895629;29;20055;-51
2022/11/02 02:16:56;;;;;;;4.00;1.70;;;18.50;1.00;;;;;;4879479;29;20507;-54
2022/11/02 02:19:43;;;;;;;9.98;1.95;;;18.40;1.00;;;;;;4878986;29;20112;-48
2022/11/02 02:22:22;;;;;;;4.88;1.23;;;18.40;1.00;;;;;;4879964;29;20456;-53
2022/11/02 02:25:13;;;;;;;4.90;1.75;;;18.40;1.00;;;;;;4880601;29;20063;-51
2022/11/02 02:27:59;;;;;;;11.90;1.80;;;18.40;1.00;;;;;;4857736;29;20054;-52
2022/11/02 02:30:31;;;;;;;6.93;1.27;;;18.40;1.00;;;;;;4841916;29;20110;-49
2022/11/02 02:33:09;;;;;;;9.40;1.40;;;18.40;1.00;;;;;;4843431;29;20087;-50
2022/11/02 02:35:41;;;;;;;7.20;1.52;;;18.40;1.00;;;;;;4843419;29;20496;-53
2022/11/02 02:38:42;;;;;;;3.67;1.13;;;18.40;1.00;;;;;;4857797;29;20058;-48
2022/11/02 02:41:19;;;;;;;10.05;2.08;;;18.40;1.00;;;;;;4817375;29;20539;-50
2022/11/02 02:43:50;;;;;;;9.85;2.13;;;18.40;1.00;;;;;;4842016;29;20492;-51
2022/11/02 02:46:24;;;;;;;12.10;2.03;;;18.40;1.00;;;;;;4843527;29;20052;-52
2022/11/02 02:48:54;;;;;;;8.93;1.77;;;18.40;1.00;;;;;;4842962;29;20464;-49
2022/11/02 02:51:29;;;;;;;10.00;2.13;;;18.40;1.00;;;;;;4843431;29;20064;-53
2022/11/02 02:54:25;;;;;;;12.82;2.65;;;18.40;1.00;;;;;;4841805;29;20073;-53
2022/11/02 02:56:56;;;;;;;7.07;2.30;;;18.40;1.00;;;;;;4839653;29;20054;-51
2022/11/02 02:59:28;;;;;;;6.63;1.60;;;18.30;1.00;;;;;;4842668;29;20454;-51
2022/11/02 03:01:57;;;;;;;9.73;2.42;;;18.40;1.00;;;;;;4841943;29;20054;-51
2022/11/02 03:04:24;;;;;;;9.30;1.98;;;18.30;1.00;;;;;;4842920;29;20042;-55
2022/11/02 03:06:55;;;;;;;10.82;1.63;;;18.30;1.00;;;;;;4842851;29;20042;-51
2022/11/02 03:09:40;;;;;;;10.15;1.65;;;18.30;1.00;;;;;;4842672;29;20046;-50
2022/11/02 03:12:42;;;;;;;11.48;1.60;;;18.30;1.00;;;;;;4843145;29;20074;-50
2022/11/02 03:15:20;;;;;;;6.38;1.65;;;18.30;1.00;;;;;;4842947;29;20049;-50
2022/11/02 03:17:48;;;;;;;8.20;1.80;;;18.30;1.00;;;;;;4842540;29;20058;-52
2022/11/02 03:20:54;;;;;;;4.90;1.45;;;18.30;1.00;;;;;;4842459;29;20049;-53
2022/11/02 03:24:02;;;;;;;8.32;1.73;;;18.30;1.00;;;;;;4841382;29;20062;-51
2022/11/02 03:26:46;;;;;;;7.80;1.20;;;18.30;1.00;;;;;;4830541;29;20144;-52
2022/11/02 03:29:35;;;;;;;5.85;1.30;;;18.20;1.00;;;;;;4841238;29;20049;-51
2022/11/02 03:32:10;;;;;;;4.82;1.23;;;18.30;1.00;;;;;;4841262;29;20060;-50
2022/11/02 03:34:47;;;;;;;8.38;1.55;;;18.20;1.00;;;;;;4842568;29;20054;-51
2022/11/02 03:37:25;;;;;;;12.07;1.73;;;18.20;1.00;;;;;;4841503;29;20098;-51
2022/11/02 03:39:57;;;;;;;5.05;2.10;;;18.20;1.00;;;;;;4859718;29;20538;-52
2022/11/02 03:42:29;;;;;;;3.78;1.15;;;18.20;1.00;;;;;;4878449;29;20139;-51
2022/11/02 03:45:02;;;;;;;10.77;1.85;;;18.20;1.00;;;;;;4878251;29;20041;-50
2022/11/02 03:47:32;;;;;;;6.93;1.30;;;18.20;1.00;;;;;;4878363;29;20112;-50
2022/11/02 03:50:07;;;;;;;6.78;1.08;;;18.20;1.00;;;;;;4879181;29;20097;-53
2022/11/02 03:52:38;;;;;;;7.80;1.50;;;18.20;1.00;;;;;;4879909;29;20039;-53
2022/11/02 03:55:35;;;;;;;11.10;1.58;;;18.20;1.00;;;;;;4877991;29;20081;-51
2022/11/02 03:58:03;;;;;;;7.15;1.20;;;18.20;1.00;;;;;;4878889;29;20414;-53
2022/11/02 04:00:35;;;;;;;5.45;1.23;;;18.20;1.00;;;;;;4877752;29;20494;-52
2022/11/02 04:03:10;;;;;;;4.97;1.35;;;18.20;1.00;;;;;;4878004;29;20053;-50
2022/11/02 04:05:41;;;;;;;8.50;1.10;;;18.20;1.00;;;;;;4877848;29;20586;-53
2022/11/02 04:08:25;;;;;;;8.85;1.42;;;18.20;1.00;;;;;;4878034;29;20136;-53
2022/11/02 04:16:34;;;;;;;5.13;1.23;;;18.20;1.00;;;;;;4881917;29;20131;-54
2022/11/02 04:27:26;;;;;;;8.85;1.92;;;18.10;1.00;;;;;;4881986;29;20041;-50
2022/11/02 04:29:55;;;;;;;8.68;1.48;;;18.10;1.00;;;;;;4881213;29;20049;-51
2022/11/02 04:35:11;;;;;;;9.88;1.77;;;18.10;1.00;;;;;;4881500;29;20053;-54
2022/11/02 04:40:29;;;;;;;9.23;2.00;;;18.10;1.00;;;;;;4867631;29;20085;-52
2022/11/02 04:42:57;;;;;;;13.23;1.73;;;18.10;1.00;;;;;;4862918;29;20053;-51
2022/11/02 04:45:25;;;;;;;7.20;1.50;;;18.10;1.00;;;;;;4862461;29;20042;-48
2022/11/02 04:47:57;;;;;;;8.20;0.98;;;18.10;1.00;;;;;;4862658;29;20082;-50
2022/11/02 04:50:26;;;;;;;8.73;1.65;;;18.10;1.00;;;;;;4877728;29;20046;-51
2022/11/02 04:53:01;;;;;;;4.80;0.93;;;18.10;1.00;;;;;;4862678;29;20049;-48
2022/11/02 04:55:30;;;;;;;8.05;1.95;;;18.10;1.00;;;;;;4877913;29;20110;-52
2022/11/02 04:57:57;;;;;;;3.47;1.13;;;18.10;1.00;;;;;;4862287;29;20049;-51
2022/11/02 05:00:25;;;;;;;12.73;2.83;;;18.10;1.00;;;;;;4862054;29;20054;-53
2022/11/02 05:02:53;;;;;;;5.57;1.55;;;18.10;1.00;;;;;;4862387;29;20045;-50
2022/11/02 05:05:21;;;;;;;8.13;1.45;;;18.10;1.00;;;;;;4862158;29;20056;-53
2022/11/02 05:07:51;;;;;;;6.65;1.00;;;18.10;1.00;;;;;;4859770;29;20046;-50
2022/11/02 05:10:17;;;;;;;8.05;3.00;;;18.00;1.00;;;;;;4851775;29;20041;-51
2022/11/02 05:12:46;;;;;;;16.08;1.85;;;18.00;1.00;;;;;;4851408;29;21027;-53
2022/11/02 05:15:13;;;;;;;8.20;1.38;;;18.00;1.00;;;;;;4845331;29;20064;-50
2022/11/02 05:17:40;;;;;;;4.13;1.23;;;18.00;1.00;;;;;;4843819;29;20053;-49
2022/11/02 05:20:08;;;;;;;4.40;1.00;;;18.00;1.00;;;;;;4842851;29;20053;-50
2022/11/02 05:22:35;;;;;;;6.07;1.13;;;18.00;1.00;;;;;;4846330;29;20053;-51
2022/11/02 05:25:02;;;;;;;7.15;1.83;;;18.00;1.00;;;;;;4870209;29;20495;-49
2022/11/02 05:27:29;;;;;;;6.90;1.02;;;18.00;1.00;;;;;;4868352;29;20090;-47
2022/11/02 05:29:56;;;;;;;6.25;1.05;;;18.00;1.00;;;;;;4863058;29;20412;-50
2022/11/02 05:32:23;;;;;;;7.75;1.02;;;18.00;1.00;;;;;;4862794;29;20101;-51
2022/11/02 05:34:50;;;;;;;6.28;1.08;;;18.00;1.00;;;;;;4862062;29;20077;-49
2022/11/02 05:37:17;;;;;;;2.85;0.93;;;18.00;1.00;;;;;;4862916;29;20102;-50
2022/11/02 05:39:44;;;;;;;5.90;1.75;;;18.00;1.00;;;;;;4861610;29;20408;-49
2022/11/02 05:42:16;;;;;;;7.00;1.60;;;18.00;1.00;;;;;;4861796;29;20045;-50
2022/11/02 05:44:43;;;;;;;7.28;1.50;;;18.00;1.00;;;;;;4861786;29;20097;-52
2022/11/02 05:47:10;;;;;;;7.50;1.50;;;18.00;1.00;;;;;;4863572;29;20379;-50
2022/11/02 05:49:37;;;;;;;4.97;1.13;;;18.00;1.00;;;;;;4861294;29;20054;-51
2022/11/02 05:52:03;;;;;;;9.50;1.58;;;18.00;1.00;;;;;;4863595;29;20052;-47
2022/11/02 05:54:30;;;;;;;4.60;0.90;;;18.00;1.00;;;;;;4863187;29;20052;-52
2022/11/02 05:56:57;;;;;;;4.63;1.77;;;17.90;1.00;;;;;;4862922;29;20060;-51
2022/11/02 05:59:24;;;;;;;5.65;1.48;;;17.90;1.00;;;;;;4862324;29;20106;-49
2022/11/02 06:01:51;;;;;;;4.43;1.00;;;17.90;1.00;;;;;;4862814;29;20491;-49
2022/11/02 06:04:18;;;;;;;5.75;2.13;;;17.90;1.00;;;;;;4860127;29;20148;-55
2022/11/02 06:06:45;;;;;;;6.47;1.20;;;17.90;1.00;;;;;;4881366;29;20049;-50
2022/11/02 06:09:12;;;;;;;6.22;1.63;;;17.90;1.00;;;;;;4880558;29;20499;-49
2022/11/02 06:11:39;;;;;;;8.60;1.10;;;17.90;1.00;;;;;;4881078;29;20081;-51
2022/11/02 06:14:06;;;;;;;10.23;1.02;;;17.90;1.00;;;;;;4881442;29;20072;-53
2022/11/02 06:16:33;;;;;;;9.30;1.75;;;17.90;1.00;;;;;;4880765;29;20041;-50
2022/11/02 06:18:59;;;;;;;5.43;2.15;;;17.90;1.00;;;;;;4880558;29;20049;-49
2022/11/02 06:21:26;;;;;;;14.48;1.88;;;17.90;1.00;;;;;;4880649;29;20053;-51
2022/11/02 06:23:53;;;;;;;6.60;1.17;;;17.90;1.00;;;;;;4881362;29;20052;-49
2022/11/02 06:26:20;;;;;;;5.13;1.10;;;17.90;1.00;;;;;;4880781;29;20172;-48
2022/11/02 06:28:47;;;;;;;5.00;1.58;;;17.90;1.00;;;;;;4880800;29;20555;-50
2022/11/02 06:31:16;;;;;;;6.32;1.90;;;17.90;1.00;;;;;;4879665;29;20059;-52
2022/11/02 06:33:44;;;;;;;12.43;1.77;;;17.90;1.00;;;;;;4880525;29;20053;-51
2022/11/02 06:36:11;;;;;;;9.82;2.10;;;17.80;1.00;;;;;;4880456;29;20041;-49
2022/11/02 06:38:38;;;;;;;8.60;1.83;;;17.80;1.00;;;;;;4880649;29;20041;-51
2022/11/02 06:41:05;;;;;;;2.08;0.47;;;17.80;1.00;;;;;;4880276;29;20053;-50
2022/11/02 06:43:36;;;;;;;6.60;1.77;;;17.80;1.00;;;;;;4879108;29;20053;-53
2022/11/02 06:46:04;;;;;;;10.15;1.55;;;17.80;1.00;;;;;;4880238;29;20055;-49
2022/11/02 06:48:32;;;;;;;5.38;1.70;;;17.80;1.00;;;;;;4880054;29;20048;-51
2022/11/02 06:51:03;;;;;;;4.90;1.10;;;17.80;1.00;;;;;;4875544;29;20045;-48
2022/11/02 06:53:30;;;;;;;8.80;1.15;;;17.80;1.00;;;;;;4873780;29;20076;-53
2022/11/02 06:55:58;;;;;;;4.72;0.65;;;17.80;1.00;;;;;;4872770;29;20492;-52
2022/11/02 06:58:25;;;;;;;7.78;1.55;;;17.80;1.00;;;;;;4874052;29;20140;-52
2022/11/02 07:01:03;;;;;;;8.80;1.63;;;17.80;1.00;;;;;;4879996;29;20053;-53
2022/11/02 07:03:31;;;;;;;5.80;0.95;;;17.80;1.00;;;;;;4879891;29;20108;-52
2022/11/02 07:05:58;;;;;;;4.15;0.93;;;17.80;1.00;;;;;;4879999;29;20073;-52
2022/11/02 07:08:26;;;;;;;4.85;1.42;;;17.80;1.00;;;;;;4880070;29;20065;-52
2022/11/02 07:10:53;;;;;;;4.43;0.85;;;17.80;1.00;;;;;;4879805;29;20069;-50
2022/11/02 07:13:20;;;;;;;7.65;1.25;;;17.80;1.00;;;;;;4879757;29;20080;-52
2022/11/02 07:15:50;;;;;;;7.20;1.23;;;17.80;1.00;;;;;;4879796;29;20096;-51
2022/11/02 07:18:17;;;;;;;4.63;0.93;;;17.80;1.00;;;;;;4879561;29;20052;-52
2022/11/02 07:20:44;;;;;;;7.88;1.05;;;17.80;1.00;;;;;;4879713;29;20077;-53
2022/11/02 07:23:11;;;;;;;8.20;1.83;;;17.80;1.00;;;;;;4879655;29;20048;-52
2022/11/02 07:25:38;;;;;;;6.45;1.70;;;17.80;1.00;;;;;;4878560;29;20059;-51
2022/11/02 07:28:04;;;;;;;5.57;1.25;;;17.80;1.00;;;;;;4879747;29;20557;-51
2022/11/02 07:30:33;;;;;;;4.90;1.42;;;17.70;1.00;;;;;;4879652;29;20059;-54
2022/11/02 07:33:00;;;;;;;5.25;1.63;;;17.80;1.00;;;;;;4879809;29;20085;-53
2022/11/02 07:35:28;;;;;;;6.60;0.85;;;17.70;1.00;;;;;;4878656;29;20071;-50
2022/11/02 07:38:00;;;;;;;8.52;1.83;;;17.70;1.00;;;;;;4879837;29;20049;-50
2022/11/02 07:40:28;;;;;;;3.83;0.85;;;17.70;1.00;;;;;;4879411;29;20049;-49
2022/11/02 07:42:55;;;;;;;5.10;1.42;;;17.70;1.00;;;;;;4879441;29;20047;-54
2022/11/02 07:45:45;;;;;;;9.88;0.80;;;17.70;1.00;;;;;;4852697;29;20136;-51
2022/11/02 07:48:12;;;;;;;6.30;1.08;;;17.70;1.00;;;;;;4879527;29;20120;-54
2022/11/02 07:50:39;;;;;;;4.82;2.15;;;17.70;1.00;;;;;;4879149;29;20049;-51
2022/11/02 07:53:06;;;;;;;6.85;1.13;;;17.70;1.00;;;;;;4879668;29;20488;-51
2022/11/02 07:55:33;;;;;;;4.90;0.75;;;17.70;1.00;;;;;;4879327;29;20511;-51
2022/11/02 07:58:03;;;;;;;6.47;1.85;;;17.70;1.00;;;;;;4879285;29;20052;-54
2022/11/02 08:00:32;;;;;;;3.47;1.10;;;17.70;1.00;;;;;;4879227;29;20529;-52
2022/11/02 08:03:00;;;;;;;3.70;1.00;;;17.70;1.00;;;;;;4879217;29;20083;-54
2022/11/02 08:05:28;;;;;;;3.78;0.90;;;17.70;1.00;;;;;;4879412;29;20041;-53
2022/11/02 08:08:07;;;;;;;9.65;1.77;;;17.70;1.00;;;;;;4879570;29;20071;-53
2022/11/02 08:10:35;;;;;;;5.80;1.20;;;17.70;1.00;;;;;;4879002;29;20484;-54
2022/11/02 08:13:10;;;;;;;7.75;1.02;;;17.70;1.00;;;;;;4879347;29;20112;-52
2022/11/02 08:15:37;;;;;;;6.97;2.13;;;17.70;1.00;;;;;;4879278;29;20110;-51
2022/11/02 08:18:06;;;;;;;8.02;1.27;;;17.70;1.00;;;;;;4879345;29;20049;-50
2022/11/02 08:20:35;;;;;;;7.47;1.30;;;17.70;1.00;;;;;;4877673;29;20080;-53
2022/11/02 08:23:02;;;;;;;6.50;1.73;;;17.60;1.00;;;;;;4879394;29;20053;-49
2022/11/02 08:25:30;;;;;;;8.43;1.40;;;17.60;1.00;;;;;;4879561;29;20124;-48
2022/11/02 08:27:58;;;;;;;8.00;0.98;;;17.60;1.00;;;;;;4879250;29;20045;-49
2022/11/02 08:30:27;;;;;;;5.75;0.98;;;17.60;1.00;;;;;;4878804;29;20049;-48
2022/11/02 08:32:54;;;;;;;3.75;0.98;;;17.60;1.00;;;;;;4878869;29;20093;-51
2022/11/02 08:35:23;;;;;;;3.70;0.73;;;17.60;1.00;;;;;;4879393;29;20352;-50
2022/11/02 08:37:56;;;;;;;7.95;1.15;;;17.60;1.00;;;;;;4879025;29;20093;-49
2022/11/02 08:40:23;;;;;;;3.80;1.08;;;17.60;1.00;;;;;;4878668;29;20048;-52
2022/11/02 08:43:01;;;;;;;5.30;1.55;;;17.60;1.00;;;;;;4879229;29;20085;-51
2022/11/02 08:45:30;;;;;;;4.03;1.40;;;17.60;1.00;;;;;;4878990;29;20467;-49
2022/11/02 08:48:16;;;;;;;3.63;0.80;;;17.60;1.00;;;;;;4878777;29;20044;-51
2022/11/02 08:50:43;;;;;;;2.67;0.60;;;17.60;1.00;;;;;;4878981;29;20436;-50
2022/11/02 08:53:10;;;;;;;6.70;0.90;;;17.60;1.00;;;;;;4879061;29;20464;-54
2022/11/02 08:55:37;;;;;;;5.28;0.73;;;17.70;1.00;;;;;;4880393;29;20047;-50
2022/11/02 08:58:04;;;;;;;4.50;1.23;;;17.60;1.00;;;;;;4882492;29;20452;-51
2022/11/02 09:00:33;;;;;;;4.35;1.25;;;17.60;1.00;;;;;;4881678;29;20056;-55
2022/11/02 09:03:11;;;;;;;4.53;1.08;;;17.70;1.00;;;;;;4882191;29;20205;-52
2022/11/02 09:05:43;;;;;;;5.50;1.40;;;17.70;1.00;;;;;;4882751;29;20491;-50
2022/11/02 09:08:15;;;;;;;6.72;1.05;;;17.70;1.00;;;;;;4882252;29;20041;-52
2022/11/02 09:10:44;;;;;;;5.10;1.00;;;17.70;1.00;;;;;;4882331;29;20376;-50
2022/11/02 09:13:13;;;;;;;5.38;2.17;;;17.70;1.00;;;;;;4882102;29;20551;-50
2022/11/02 09:15:40;;;;;;;4.43;1.30;;;17.70;1.00;;;;;;4881812;29;20495;-49
2022/11/02 09:18:08;;;;;;;5.70;1.30;;;17.80;1.00;;;;;;4882100;29;20049;-51
2022/11/02 09:20:35;;;;;;;4.22;0.90;;;17.70;1.00;;;;;;4881644;29;20049;-47
2022/11/02 09:23:02;;;;;;;4.22;1.17;;;17.80;1.00;;;;;;4881646;29;20078;-50
2022/11/02 09:25:29;;;;;;;3.63;0.90;;;17.80;1.00;;;;;;4881907;29;20521;-50
2022/11/02 09:27:56;;;;;;;8.13;0.95;;;17.80;1.00;;;;;;4881614;29;20045;-53
2022/11/02 09:30:25;;;;;;;2.30;1.25;;;17.80;1.00;;;;;;4881166;29;20037;-50
2022/11/02 09:32:56;;;;;;;3.63;1.08;;;17.80;1.00;;;;;;4881843;29;20045;-50
2022/11/02 09:35:26;;;;;;;4.07;1.00;;;17.80;1.00;;;;;;4881749;29;20049;-52
2022/11/02 09:37:52;;;;;;;8.65;1.15;;;17.80;1.00;;;;;;4881551;29;20044;-48
2022/11/02 09:40:22;;;;;;;2.33;0.95;;;17.80;1.00;;;;;;4880985;29;20045;-50
2022/11/02 09:43:03;;;;;;;4.30;1.50;;;17.90;1.00;;;;;;4881299;29;20057;-50
2022/11/02 09:46:00;;;;;;;5.18;1.10;;;17.90;1.00;;;;;;4881506;29;20591;-48
2022/11/02 09:48:34;;;;;;;6.05;1.00;;;17.90;1.00;;;;;;4880978;29;20044;-53
2022/11/02 09:51:15;;;;;;;2.05;0.55;;;17.90;1.00;;;;;;4881371;29;20444;-49
2022/11/02 09:54:06;;;;;;;6.70;1.92;;;17.90;1.00;;;;;;4881361;29;20056;-49
2022/11/02 09:56:36;;;;;;;7.63;1.33;;;17.90;1.00;;;;;;4881174;29;20049;-48
2022/11/02 09:59:17;;;;;;;4.85;1.70;;;17.90;1.00;;;;;;4880764;29;20041;-50
2022/11/02 10:01:57;;;;;;;2.38;0.82;;;17.90;1.00;;;;;;4881846;29;20056;-51
2022/11/02 10:05:01;;;;;;;4.70;0.73;;;17.90;1.00;;;;;;4881256;29;20048;-49
2022/11/02 10:07:40;;;;;;;9.32;1.15;;;17.90;1.00;;;;;;4880397;29;20045;-51
2022/11/02 10:10:21;;;;;;;5.93;0.98;;;18.00;1.00;;;;;;4880533;29;20045;-48
2022/11/02 10:13:27;;;;;;;4.07;1.08;;;18.00;1.00;;;;;;4880877;29;20041;-51
2022/11/02 10:16:01;;;;;;;6.75;1.15;;;18.00;1.00;;;;;;4879793;29;20470;-52
2022/11/02 10:18:29;;;;;;;7.13;1.00;;;18.00;1.00;;;;;;4880956;29;20391;-48
2022/11/02 10:21:01;;;;;;;3.50;0.85;;;18.00;1.00;;;;;;4880950;29;20113;-53
2022/11/02 10:23:33;;;;;;;5.30;1.10;;;18.10;1.00;;;;;;4880817;29;20041;-55
2022/11/02 10:26:01;;;;;;;3.92;1.02;;;18.10;1.00;;;;;;4880537;29;20053;-53
2022/11/02 10:28:35;;;;;;;3.50;1.42;;;18.10;1.00;;;;;;4880330;29;20041;-51
2022/11/02 10:31:15;;;;;;;4.20;1.38;;;18.10;1.00;;;;;;4880566;29;20081;-49
2022/11/02 10:33:41;;;;;;;4.88;1.00;;;18.10;1.00;;;;;;4880669;29;20073;-50
2022/11/02 10:36:16;;;;;;;6.45;0.90;;;18.10;1.00;;;;;;4880630;29;20049;-52
2022/11/02 10:39:11;;;;;;;4.55;0.90;;;18.10;1.00;;;;;;4880188;29;20041;-50
2022/11/02 10:42:09;;;;;;;7.93;1.15;;;18.10;1.00;;;;;;4880817;29;20060;-47
2022/11/02 10:45:13;;;;;;;6.22;1.30;;;18.10;1.00;;;;;;4880312;29;20132;-51
2022/11/02 10:48:02;;;;;;;7.05;1.15;;;18.20;1.00;;;;;;4880172;29;20049;-51
2022/11/02 10:50:55;;;;;;;3.70;0.55;;;18.20;1.00;;;;;;4879953;29;20045;-54
2022/11/02 10:53:22;;;;;;;3.33;1.48;;;18.20;1.00;;;;;;4880549;29;20040;-51
2022/11/02 10:56:30;;;;;;;4.07;1.35;;;18.20;1.00;;;;;;4878871;29;20411;-50
2022/11/02 10:59:16;;;;;;;13.77;1.92;;;18.20;1.00;;;;;;4879916;29;20064;-52
2022/11/02 11:02:05;;;;;;;5.85;1.55;;;18.20;1.00;;;;;;4880449;29;20127;-53
2022/11/02 11:04:33;;;;;;;5.78;1.13;;;18.20;1.00;;;;;;4879924;29;20049;-49
2022/11/02 11:07:13;;;;;;;7.25;1.05;;;18.20;1.00;;;;;;4880246;29;20571;-51
2022/11/02 11:09:55;;;;;;;6.00;0.90;;;18.20;1.00;;;;;;4879593;29;20052;-53
2022/11/02 11:12:28;;;;;;;3.83;1.00;;;18.20;1.00;;;;;;4880617;29;20492;-50
2022/11/02 11:14:57;;;;;;;11.77;1.35;;;18.20;1.00;;;;;;4879813;29;20129;-54
2022/11/02 11:17:44;;;;;;;5.80;0.60;;;18.20;1.00;;;;;;4879873;29;20152;-52
2022/11/02 11:20:32;;;;;;;3.90;1.08;;;18.20;1.00;;;;;;4878767;29;20052;-50
2022/11/02 11:23:26;;;;;;;6.05;1.77;;;18.20;1.00;;;;;;4879590;29;20049;-55
2022/11/02 11:26:24;;;;;;;5.88;1.23;;;18.20;1.00;;;;;;4880122;29;20109;-52
2022/11/02 11:28:56;;;;;;;4.60;0.57;;;18.20;1.00;;;;;;4878483;29;20053;-51
2022/11/02 11:31:24;;;;;;;6.35;1.15;;;18.20;1.00;;;;;;4879778;29;20041;-50
2022/11/02 11:33:54;;;;;;;3.17;1.15;;;18.20;1.00;;;;;;4879529;29;20104;-54
2022/11/02 11:36:24;;;;;;;4.72;1.30;;;18.20;1.00;;;;;;4879602;29;20045;-53
2022/11/02 11:38:54;;;;;;;6.68;1.30;;;18.20;1.00;;;;;;4879157;29;20041;-54
2022/11/02 11:41:22;;;;;;;5.78;0.75;;;18.20;1.00;;;;;;4879723;29;20049;-54
2022/11/02 11:43:51;;;;;;;5.32;1.25;;;18.20;1.00;;;;;;4879468;29;20041;-51
2022/11/02 11:46:18;;;;;;;5.80;1.17;;;18.20;1.00;;;;;;4878607;29;20041;-51
2022/11/02 11:48:52;;;;;;;6.05;1.17;;;18.30;1.00;;;;;;4879183;29;20427;-49
2022/11/02 11:51:41;;;;;;;4.57;1.13;;;18.20;1.00;;;;;;4879358;29;20049;-50
2022/11/02 11:54:27;;;;;;;4.22;0.93;;;18.20;1.00;;;;;;4879506;29;20049;-50
2022/11/02 11:56:59;;;;;;;5.85;0.95;;;18.20;1.00;;;;;;4879528;29;20053;-51
2022/11/02 11:59:27;;;;;;;6.78;1.65;;;18.20;1.00;;;;;;4879069;29;20041;-51
2022/11/02 12:01:59;;;;;;;6.32;0.93;;;18.20;1.00;;;;;;4879945;29;20041;-49
2022/11/02 12:04:36;;;;;;;13.80;3.08;;;18.20;1.00;;;;;;4879332;29;20491;-51
2022/11/02 12:07:29;;;;;;;6.32;0.98;;;18.20;1.00;;;;;;4879458;29;20053;-49
2022/11/02 12:10:21;;;;;;;4.75;0.90;;;18.20;1.00;;;;;;4878827;29;20045;-49
2022/11/02 12:12:56;;;;;;;5.28;1.08;;;18.20;1.00;;;;;;4879559;29;20452;-53
2022/11/02 12:15:41;;;;;;;6.30;1.85;;;18.20;1.00;;;;;;4879200;29;20060;-53
2022/11/02 12:18:32;;;;;;;6.28;0.98;;;18.20;1.00;;;;;;4879538;29;20418;-54
2022/11/02 12:21:28;;;;;;;6.07;1.05;;;18.20;1.00;;;;;;4879919;29;20045;-51
2022/11/02 12:24:11;;;;;;;6.45;1.63;;;18.20;1.00;;;;;;4879073;29;20124;-54
2022/11/02 12:26:47;;;;;;;5.13;1.13;;;18.20;1.00;;;;;;4879197;29;20125;-55
2022/11/02 12:29:28;;;;;;;5.20;1.02;;;18.20;1.00;;;;;;4878966;29;20056;-50
2022/11/02 12:32:19;;;;;;;2.78;0.70;;;18.20;1.00;;;;;;4882531;29;20053;-49
2022/11/02 12:35:00;;;;;;;5.10;0.57;;;18.20;1.00;;;;;;4882935;29;20045;-49
2022/11/02 12:38:18;;;;;;;6.22;1.83;;;18.20;1.00;;;;;;4882595;29;20052;-49
2022/11/02 12:40:55;;;;;;;5.50;0.88;;;18.20;1.00;;;;;;4882794;29;20045;-52
2022/11/02 12:43:38;;;;;;;4.80;0.90;;;18.20;1.00;;;;;;4882859;29;20055;-51
2022/11/02 12:46:36;;;;;;;5.80;0.90;;;18.20;1.00;;;;;;4882473;29;20053;-50
2022/11/02 12:49:18;;;;;;;;;;;18.20;1.00;;;;;;4882723;29;20272;-49
2022/11/02 12:52:12;;;;;;;5.65;1.58;;;18.20;1.00;;;;;;4883108;29;20043;-51
2022/11/02 12:54:54;;;;;;;;;;;18.20;1.00;;;;;;4882981;29;20055;-52
2022/11/02 12:57:23;;;;;;;5.82;1.85;;;18.10;1.00;;;;;;4882814;29;20267;-51
2022/11/02 12:59:54;;;;;;;5.13;1.10;;;18.10;1.00;;;;;;4882024;29;20052;-49
2022/11/02 13:02:26;;;;;;;4.88;1.35;;;18.10;1.00;;;;;;4882479;29;20053;-50
2022/11/02 13:05:06;;;;;;;7.50;0.93;;;18.10;1.00;;;;;;4882121;29;20045;-50
2022/11/02 13:08:20;;;;;;;5.05;1.52;;;18.10;1.00;;;;;;4880730;29;20400;-47
2022/11/02 13:10:51;;;;;;;2.85;0.75;;;18.10;1.00;;;;;;4806570;29;20055;-53
2022/11/02 13:13:46;;;;;;;4.57;0.88;;;18.10;1.00;;;;;;4806496;29;20046;-51
2022/11/02 13:16:15;;;;;;;4.00;0.60;;;18.10;1.00;;;;;;4859363;29;20495;-53
2022/11/02 13:18:52;;;;;;;3.58;0.85;;;18.10;1.00;;;;;;4881484;29;20060;-51
2022/11/02 13:21:30;;;;;;;3.95;1.15;;;18.10;1.00;;;;;;4882317;29;20518;-49
2022/11/02 13:23:59;;;;;;;5.05;1.25;;;18.10;1.00;;;;;;4881746;29;20044;-52
2022/11/02 13:26:41;;;;;;;9.95;1.33;;;18.10;1.00;;;;;;4882061;29;20101;-50
2022/11/02 13:29:44;;;;;;;7.45;1.30;;;18.10;1.00;;;;;;4881349;29;20045;-50
2022/11/02 13:32:26;;;;;;;4.82;1.00;;;18.10;1.00;;;;;;4881791;29;20411;-53
2022/11/02 13:35:05;;;;;;;6.55;1.05;;;18.10;1.00;;;;;;4881589;29;20045;-49
2022/11/02 13:37:40;;;;;;;7.13;1.20;;;18.10;1.00;;;;;;4881757;29;20056;-50
2022/11/02 13:40:37;;;;;;;6.82;1.10;;;18.10;1.00;;;;;;4881279;29;20056;-51
2022/11/02 13:43:23;;;;;;;7.15;1.48;;;18.10;1.00;;;;;;4873538;29;20061;-51
2022/11/02 13:46:05;;;;;;;7.15;1.48;;;18.10;1.00;;;;;;4881827;29;20419;-50
2022/11/02 13:48:58;;;;;;;5.80;1.15;;;18.10;1.00;;;;;;4881018;29;20059;-48
2022/11/02 13:51:31;;;;;;;7.85;1.08;;;18.10;1.00;;;;;;4881438;29;20053;-50